Dades meteomassalio
Diari Summary for Gener 13, 2018 Units:  English    Metric   Both
« Previous Day
Next Day »
Diari Semanal Mensual Anual Personalitzat
  Maxima: Minima: Mijana:
Temperatura: TemperatureF °F 28.0 °F 37.5 °F
Rosada: DewpointF °F 25.7 °F 34 °F
Humitat: Humidity % 74 % 87 %
Velocitat del vent: WindSpeedMPH mph 0.0 mph 0.6 mph
Racha vent: WindSpeedGustMPH mph - -
Vent:- - South
Pressio: PressureIn in 30.08 in -
Pluja: 0.05 in    
Historical Graphs
 
 
Tabular Data for Gener 13, 2018
Time Temperature Dew Point Pressure Wind Wind Speed Wind Gust Humidity Rainfall Rate (Hourly) solar Conditions
TemperatureF °F DewpointF °F PressureIn in Calm     Humidity % HourlyPrecipIn in SolarRadiationWatts/m^2 W/m2 Conditions
00:00 36.0 °F 32.2 °F 30.31 in Calm     86 % 0.00 in 0.0 W/m2 CLR
00:12 35.0 °F 31.5 °F 30.31 in Calm     87 % 0.00 in 0.0 W/m2 CLR
00:21 34.0 °F 30.5 °F 30.31 in Calm     87 % 0.00 in 0.0 W/m2 CLR
00:29 34.0 °F 30.5 °F 30.31 in Calm     87 % 0.00 in 0.0 W/m2 CLR
00:36 35.0 °F 31.5 °F 30.31 in Calm     87 % 0.00 in 0.0 W/m2 CLR
00:46 34.0 °F 30.5 °F 30.31 in Calm     87 % 0.00 in 0.0 W/m2 CLR
00:54 34.0 °F 30.8 °F 30.30 in Calm     88 % 0.00 in 0.0 W/m2 CLR
01:11 34.0 °F 30.8 °F 30.30 in Calm     88 % 0.00 in 0.0 W/m2 CLR
01:18 33.0 °F 29.8 °F 30.30 in Calm     88 % 0.00 in 0.0 W/m2 CLR
01:26 33.0 °F 29.8 °F 30.30 in Calm     88 % 0.00 in 0.0 W/m2 CLR
01:42 32.0 °F 29.1 °F 30.29 in Calm     89 % 0.00 in 0.0 W/m2 CLR
01:54 32.0 °F 29.1 °F 30.29 in Calm     89 % 0.00 in 0.0 W/m2 CLR
02:03 32.0 °F 29.4 °F 30.28 in Calm     90 % 0.00 in 0.0 W/m2 CLR
02:12 32.0 °F 29.4 °F 30.28 in Calm     90 % 0.00 in 0.0 W/m2 CLR
02:21 32.0 °F 29.4 °F 30.27 in Calm     90 % 0.00 in 0.0 W/m2 CLR
02:26 32.0 °F 29.4 °F 30.27 in Calm     90 % 0.00 in 0.0 W/m2 CLR
02:34 31.0 °F 28.4 °F 30.27 in Calm     90 % 0.00 in 0.0 W/m2 CLR
02:45 31.0 °F 28.4 °F 30.27 in Calm     90 % 0.00 in 0.0 W/m2 CLR
03:00 31.0 °F 28.4 °F 30.27 in Calm     90 % 0.00 in 0.0 W/m2 CLR
03:06 30.0 °F 27.4 °F 30.27 in Calm     90 % 0.00 in 0.0 W/m2 CLR
03:22 31.0 °F 28.7 °F 30.27 in Calm     91 % 0.00 in 0.0 W/m2 CLR
03:28 31.0 °F 28.7 °F 30.27 in Calm     91 % 0.00 in 0.0 W/m2 CLR
03:48 31.0 °F 28.7 °F 30.27 in Calm     91 % 0.00 in 0.0 W/m2 CLR
04:04 31.0 °F 28.7 °F 30.27 in Calm     91 % 0.00 in 0.0 W/m2 CLR
04:16 30.0 °F 27.7 °F 30.26 in Calm     91 % 0.00 in 0.0 W/m2 CLR
04:22 30.0 °F 27.7 °F 30.26 in Calm     91 % 0.00 in 0.0 W/m2 CLR
04:52 30.0 °F 27.7 °F 30.25 in Calm     91 % 0.00 in 0.0 W/m2 CLR
04:58 30.0 °F 27.7 °F 30.25 in Calm     91 % 0.00 in 0.0 W/m2 CLR
05:07 30.0 °F 27.7 °F 30.25 in Calm     91 % 0.00 in 0.0 W/m2 CLR
05:16 30.0 °F 27.7 °F 30.25 in Calm     91 % 0.00 in 0.0 W/m2 CLR
05:34 29.0 °F 26.7 °F 30.24 in Calm     91 % 0.00 in 0.0 W/m2 CLR
05:39 29.0 °F 26.7 °F 30.24 in Calm     91 % 0.00 in 0.0 W/m2 CLR
05:52 28.0 °F 25.7 °F 30.23 in Calm     91 % 0.00 in 0.0 W/m2 CLR
06:05 28.0 °F 26.0 °F 30.22 in Calm     92 % 0.00 in 0.0 W/m2 CLR
06:17 28.0 °F 26.0 °F 30.23 in Calm     92 % 0.00 in 0.0 W/m2 CLR
06:34 28.0 °F 26.0 °F 30.23 in Calm     92 % 0.00 in 0.0 W/m2 CLR
06:44 28.0 °F 26.0 °F 30.23 in Calm     92 % 0.00 in 0.0 W/m2 CLR
06:55 28.0 °F 26.0 °F 30.22 in Calm     92 % 0.00 in 0.0 W/m2 CLR
07:14 28.0 °F 26.0 °F 30.22 in Calm     92 % 0.00 in 0.0 W/m2 CLR
07:36 29.0 °F 27.0 °F 30.21 in Calm     92 % 0.00 in 0.0 W/m2 CLR
07:56 29.0 °F 27.0 °F 30.21 in Calm     92 % 0.00 in 0.0 W/m2 CLR
08:04 29.0 °F 27.0 °F 30.21 in Calm     92 % 0.00 in 0.0 W/m2 CLR
08:16 29.0 °F 27.0 °F 30.21 in Calm     92 % 0.00 in 7.0 W/m2 OVC
09:03 29.0 °F 27.0 °F 30.22 in Calm     92 % 0.00 in 56.0 W/m2 SCT
09:09 30.0 °F 28.0 °F 30.22 in Calm     92 % 0.00 in 74.0 W/m2 FEW
09:25 30.0 °F 28.0 °F 30.22 in Calm     92 % 0.00 in 49.0 W/m2 FEW
09:37 31.0 °F 28.9 °F 30.22 in Calm     92 % 0.00 in 83.0 W/m2 FEW
10:09 32.0 °F 29.7 °F 30.22 in Calm     91 % 0.01 in 123.0 W/m2 CLR
10:14 32.0 °F 29.7 °F 30.22 in Calm     91 % 0.01 in 218.0 W/m2 CLR
10:20 33.0 °F 30.7 °F 30.22 in Calm     91 % 0.01 in 218.0 W/m2 CLR
10:27 34.0 °F 31.4 °F 30.22 in Calm     90 % 0.01 in 195.0 W/m2 CLR
10:39 35.0 °F 32.1 °F 30.22 in Calm     89 % 0.01 in 330.0 W/m2 CLR
10:50 36.0 °F 32.5 °F 30.22 in Calm     87 % 0.01 in 183.0 W/m2 CLR
11:07 39.0 °F 34.9 °F 30.23 in Calm     85 % 0.00 in 193.0 W/m2 CLR
11:15 40.0 °F 35.6 °F 30.22 in Calm     84 % 0.00 in 179.0 W/m2 CLR
11:25 40.0 °F 35.3 °F 30.22 in Calm     83 % 0.00 in 274.0 W/m2 CLR
12:10 45.0 °F 38.2 °F 30.20 in Calm     77 % 0.00 in 439.0 W/m2 CLR
12:26 47.0 °F 39.1 °F 30.19 in East 5.0 mph 5.0 mph 74 % 0.00 in 392.0 W/m2 CLR
12:31 47.0 °F 39.5 °F 30.19 in East 3.5 mph 3.5 mph 75 % 0.00 in 496.0 W/m2 CLR
12:42 47.0 °F 39.5 °F 30.18 in NE 3.5 mph 3.5 mph 75 % 0.00 in 355.0 W/m2 CLR
12:56 47.0 °F 39.8 °F 30.17 in ENE 3.5 mph 3.5 mph 76 % 0.00 in 339.0 W/m2 CLR
13:03 47.0 °F 40.2 °F 30.17 in ENE 5.8 mph 5.8 mph 77 % 0.00 in 248.0 W/m2 CLR
13:08 47.0 °F 40.2 °F 30.17 in ENE 5.8 mph 5.8 mph 77 % 0.00 in 230.0 W/m2 CLR
13:27 46.0 °F 39.9 °F 30.15 in ENE 3.5 mph 3.5 mph 79 % 0.00 in 134.0 W/m2 CLR
13:34 46.0 °F 39.9 °F 30.16 in ENE 2.3 mph 2.3 mph 79 % 0.00 in 132.0 W/m2 CLR
13:39 46.0 °F 39.9 °F 30.15 in ENE 3.5 mph 3.5 mph 79 % 0.00 in 128.0 W/m2 CLR
13:51 46.0 °F 40.2 °F 30.15 in Calm     80 % 0.00 in 113.0 W/m2 CLR
14:00 46.0 °F 40.2 °F 30.14 in Calm     80 % 0.00 in 125.0 W/m2 CLR
14:08 46.0 °F 40.5 °F 30.14 in Calm     81 % 0.00 in 188.0 W/m2 CLR
14:18 46.0 °F 40.5 °F 30.13 in East 1.2 mph 1.2 mph 81 % 0.00 in 146.0 W/m2 CLR
14:29 45.0 °F 39.5 °F 30.12 in ENE 3.5 mph 3.5 mph 81 % 0.00 in 109.0 W/m2 CLR
14:54 46.0 °F 40.8 °F 30.12 in Calm     82 % 0.00 in 116.0 W/m2 CLR
15:02 46.0 °F 40.8 °F 30.12 in Calm     82 % 0.00 in 111.0 W/m2 CLR
15:10 46.0 °F 41.1 °F 30.12 in Calm     83 % 0.00 in 95.0 W/m2 CLR
15:18 46.0 °F 41.1 °F 30.12 in Calm     83 % 0.00 in 109.0 W/m2 CLR
15:29 46.0 °F 40.8 °F 30.11 in North 2.3 mph 2.3 mph 82 % 0.00 in 95.0 W/m2 CLR
15:35 46.0 °F 41.1 °F 30.10 in Calm     83 % 0.00 in 102.0 W/m2 CLR
15:49 46.0 °F 41.1 °F 30.10 in Calm     83 % 0.00 in 102.0 W/m2 CLR
15:54 46.0 °F 41.1 °F 30.10 in Calm     83 % 0.00 in 107.0 W/m2 CLR
16:19 46.0 °F 41.1 °F 30.10 in Calm     83 % 0.00 in 195.0 W/m2 CLR
16:25 46.0 °F 41.1 °F 30.09 in Calm     83 % 0.00 in 322.0 W/m2 CLR
16:33 46.0 °F 40.8 °F 30.10 in Calm     82 % 0.00 in 102.0 W/m2 CLR
16:39 46.0 °F 40.8 °F 30.10 in Calm     82 % 0.00 in 51.0 W/m2 FEW
16:47 45.0 °F 40.1 °F 30.09 in Calm     83 % 0.00 in 46.0 W/m2 SCT
16:56 45.0 °F 40.1 °F 30.08 in Calm     83 % 0.00 in 67.0 W/m2 FEW
17:03 45.0 °F 40.1 °F 30.08 in Calm     83 % 0.00 in 35.0 W/m2 BKN
17:10 44.0 °F 39.2 °F 30.08 in Calm     83 % 0.00 in 28.0 W/m2 BKN
17:17 44.0 °F 39.2 °F 30.08 in Calm     83 % 0.00 in 33.0 W/m2 BKN
17:22 43.0 °F 38.2 °F 30.08 in Calm     83 % 0.00 in 26.0 W/m2 BKN
17:40 41.0 °F 36.5 °F 30.08 in Calm     84 % 0.00 in 9.0 W/m2 BKN
17:46 40.0 °F 35.9 °F 30.08 in Calm     85 % 0.00 in 5.0 W/m2 OVC
17:55 39.0 °F 34.9 °F 30.09 in NNW 3.5 mph 3.5 mph 85 % 0.00 in 0.0 W/m2 OVC
18:11 40.0 °F 36.4 °F 30.09 in NNW 6.9 mph 6.9 mph 87 % 0.00 in 0.0 W/m2 CLR
18:32 39.0 °F 35.7 °F 30.09 in Calm     88 % 0.00 in 0.0 W/m2 CLR
18:38 39.0 °F 35.7 °F 30.10 in Calm     88 % 0.00 in 0.0 W/m2 CLR
18:44 39.0 °F 35.7 °F 30.11 in Calm     88 % 0.00 in 0.0 W/m2 CLR
19:02 39.0 °F 36.0 °F 30.11 in Calm     89 % 0.00 in 0.0 W/m2 CLR
19:08 40.0 °F 37.0 °F 30.11 in Calm     89 % 0.00 in 0.0 W/m2 CLR
19:14 40.0 °F 37.0 °F 30.11 in Calm     89 % 0.00 in 0.0 W/m2 CLR
19:21 40.0 °F 37.0 °F 30.11 in Calm     89 % 0.00 in 0.0 W/m2 CLR
19:30 40.0 °F 37.0 °F 30.10 in Calm     89 % 0.00 in 0.0 W/m2 CLR
19:38 40.0 °F 37.0 °F 30.10 in Calm     89 % 0.00 in 0.0 W/m2 CLR
20:19 39.0 °F 36.0 °F 30.10 in West 1.2 mph 1.2 mph 89 % 0.00 in 0.0 W/m2 CLR
20:24 40.0 °F 37.0 °F 30.10 in Calm     89 % 0.00 in 0.0 W/m2 CLR
20:30 40.0 °F 37.0 °F 30.10 in Calm     89 % 0.00 in 0.0 W/m2 CLR
20:46 41.0 °F 38.0 °F 30.10 in Calm     89 % 0.00 in 0.0 W/m2 CLR
21:04 40.0 °F 37.0 °F 30.10 in Calm     89 % 0.00 in 0.0 W/m2 CLR
21:13 40.0 °F 37.0 °F 30.10 in Calm     89 % 0.00 in 0.0 W/m2 CLR
21:19 40.0 °F 37.0 °F 30.10 in Calm     89 % 0.00 in 0.0 W/m2 CLR
21:35 41.0 °F 37.7 °F 30.12 in NW 2.3 mph 2.3 mph 88 % 0.00 in 0.0 W/m2 CLR
21:42 41.0 °F 37.7 °F 30.12 in NW 3.5 mph 3.5 mph 88 % 0.00 in 0.0 W/m2 CLR
22:00 41.0 °F 37.7 °F 30.12 in Calm     88 % 0.01 in 0.0 W/m2 RA
22:06 41.0 °F 38.0 °F 30.12 in WNW 1.2 mph 1.2 mph 89 % 0.02 in 0.0 W/m2 RA
22:13 41.0 °F 38.0 °F 30.13 in Calm     89 % 0.02 in 0.0 W/m2 CLR
22:22 41.0 °F 38.3 °F 30.12 in Calm     90 % 0.02 in 0.0 W/m2 CLR
22:40 41.0 °F 38.3 °F 30.12 in Calm     90 % 0.03 in 0.0 W/m2 CLR
22:49 40.0 °F 37.6 °F 30.12 in Calm     91 % 0.03 in 0.0 W/m2 CLR
23:02 40.0 °F 37.6 °F 30.12 in Calm     91 % 0.02 in 0.0 W/m2 CLR
23:15 40.0 °F 37.6 °F 30.12 in Calm     91 % 0.01 in 0.0 W/m2 CLR
23:27 41.0 °F 38.9 °F 30.11 in West 3.5 mph 3.5 mph 92 % 0.01 in 0.0 W/m2 CLR
23:33 41.0 °F 38.9 °F 30.12 in West 3.5 mph 3.5 mph 92 % 0.00 in 0.0 W/m2 CLR
23:47 41.0 °F 38.6 °F 30.11 in Calm     91 % 0.01 in 0.0 W/m2 RA
23:54 41.0 °F 38.6 °F 30.11 in Calm     91 % 0.01 in 0.0 W/m2 CLR
23:59 41.0 °F 38.6 °F 30.11 in Calm     91 % 0.01 in 0.0 W/m2 CLR
Lo Temps de Massalio
Compliments of Weather Underground - 768 kb